Terminal Aerodrome Forecast
Issued by NWS

Home | Current Version | Previous Version | Text Only | Print | Product List | Glossary On
Versions: 1 2 3 4 5 6 7 8 9 10 11 12 13 14
000
FTUS44 KEPZ 071720
TAFTCS
TAF
KTCS 071720Z 0718/0818 08006KT P6SM FEW150 OVC200
     FM072000 15010KT P6SM SCT100 OVC200
     FM080100 36006KT P6SM SCT250=

USA.gov is the U.S. government's official web portal to all federal, state and local government web resources and services.